Time;durP1;ratioP1;P1;durP2;ratioP2;P2;SDS_P1;SDS_P2;PMS_P1;PMS_P2;Temp;Humidity;BMP_temperature;BMP_pressure;BME280_temperature;BME280_humidity;BME280_pressure;Samples;Min_cycle;Max_cycle;Signal;HPM_P1;HPM_P2
2022/12/28 00:02:16;;;;;;;2.42;1.20;;;11.10;86.70;;;;;;5031138;28;20025;-78
2022/12/28 00:04:41;;;;;;;3.40;1.23;;;11.10;86.60;;;;;;5033272;28;20025;-78
2022/12/28 00:07:07;;;;;;;3.05;1.25;;;11.10;86.60;;;;;;5031609;28;20032;-77
2022/12/28 00:09:32;;;;;;;2.83;1.30;;;11.10;86.50;;;;;;5032459;28;20022;-77
2022/12/28 00:11:58;;;;;;;2.67;1.23;;;11.10;86.60;;;;;;5032195;28;20033;-77
2022/12/28 00:14:24;;;;;;;3.00;1.23;;;11.00;86.60;;;;;;5032400;28;20108;-76
2022/12/28 00:16:49;;;;;;;2.28;1.25;;;11.00;86.60;;;;;;5032495;28;20018;-77
2022/12/28 00:19:16;;;;;;;3.05;1.20;;;11.10;86.60;;;;;;5031414;28;20044;-77
2022/12/28 00:21:43;;;;;;;4.45;1.15;;;11.00;86.60;;;;;;5030503;28;20030;-77
2022/12/28 00:24:17;;;;;;;2.72;1.30;;;11.10;86.60;;;;;;5032283;28;20040;-77
2022/12/28 00:26:43;;;;;;;2.88;1.20;;;10.90;86.50;;;;;;5032493;28;20032;-77
2022/12/28 00:29:08;;;;;;;2.38;1.17;;;11.00;86.50;;;;;;5032466;28;20022;-76
2022/12/28 00:31:34;;;;;;;2.03;1.10;;;11.00;86.30;;;;;;5030656;28;20475;-77
2022/12/28 00:34:00;;;;;;;2.67;1.10;;;11.00;86.50;;;;;;5032118;28;20087;-77
2022/12/28 00:36:25;;;;;;;2.65;1.10;;;11.10;86.60;;;;;;5030834;28;20488;-77
2022/12/28 00:38:52;;;;;;;3.63;1.23;;;11.00;86.50;;;;;;5032021;28;20025;-77
2022/12/28 00:41:18;;;;;;;3.70;1.35;;;11.00;86.50;;;;;;5031746;28;20079;-77
2022/12/28 00:43:44;;;;;;;3.00;1.20;;;11.10;86.50;;;;;;5030671;28;20503;-77
2022/12/28 00:46:10;;;;;;;2.63;1.00;;;11.10;86.50;;;;;;5031253;28;20037;-77
2022/12/28 00:48:36;;;;;;;3.25;1.13;;;11.00;86.50;;;;;;5030796;28;20029;-77
2022/12/28 00:51:04;;;;;;;2.90;1.20;;;11.00;86.50;;;;;;5031992;28;20048;-77
2022/12/28 00:53:29;;;;;;;2.47;1.00;;;11.10;86.50;;;;;;5030648;28;20025;-77
2022/12/28 00:55:55;;;;;;;1.98;1.10;;;11.00;86.70;;;;;;5048931;28;20032;-79
2022/12/28 00:58:20;;;;;;;2.67;1.20;;;11.00;86.50;;;;;;5032156;28;20025;-78
2022/12/28 01:00:48;;;;;;;2.83;1.08;;;11.00;86.50;;;;;;5047263;28;20025;-78
2022/12/28 01:03:15;;;;;;;2.92;1.20;;;11.10;86.40;;;;;;5047492;28;20029;-77
2022/12/28 01:05:40;;;;;;;2.90;1.30;;;11.00;86.40;;;;;;5032082;28;20484;-76
2022/12/28 01:08:05;;;;;;;2.92;1.10;;;11.00;86.50;;;;;;5032071;28;20026;-77
2022/12/28 01:10:31;;;;;;;3.28;1.25;;;11.00;86.40;;;;;;5047646;28;20491;-77
2022/12/28 01:12:56;;;;;;;2.45;1.13;;;11.00;86.50;;;;;;5031785;28;20502;-75
2022/12/28 01:15:22;;;;;;;1.50;1.00;;;11.00;86.50;;;;;;5030961;28;20099;-78
2022/12/28 01:17:47;;;;;;;3.15;1.40;;;11.00;86.40;;;;;;5032152;28;20033;-77
2022/12/28 01:20:13;;;;;;;3.05;1.27;;;11.10;86.50;;;;;;5047387;28;20029;-77
2022/12/28 01:22:38;;;;;;;2.85;1.00;;;11.10;87.00;;;;;;5031874;28;20026;-77
2022/12/28 01:25:04;;;;;;;3.42;1.30;;;11.00;86.50;;;;;;5032038;28;20432;-77
2022/12/28 01:27:29;;;;;;;1.42;1.00;;;11.10;86.50;;;;;;5047289;28;20021;-77
2022/12/28 01:29:55;;;;;;;3.22;1.25;;;10.90;86.30;;;;;;5032143;28;20396;-77
2022/12/28 01:32:20;;;;;;;2.28;1.02;;;11.00;86.50;;;;;;5047006;28;20075;-77
2022/12/28 01:34:46;;;;;;;2.08;1.00;;;11.10;86.50;;;;;;5050502;28;20033;-79
2022/12/28 01:37:11;;;;;;;2.97;1.13;;;11.00;86.50;;;;;;5051241;28;20116;-77
2022/12/28 01:39:37;;;;;;;3.20;1.20;;;11.00;86.50;;;;;;5035741;28;20060;-77
2022/12/28 01:42:02;;;;;;;2.13;0.95;;;11.00;86.50;;;;;;5033942;28;20080;-78
2022/12/28 01:44:39;;;;;;;2.95;1.10;;;11.00;86.50;;;;;;5051078;28;20026;-77
2022/12/28 01:47:08;;;;;;;2.28;1.15;;;11.10;86.60;;;;;;5035688;28;20024;-77
2022/12/28 01:49:51;;;;;;;2.20;1.00;;;11.00;86.50;;;;;;5035592;28;20025;-77
2022/12/28 01:52:32;;;;;;;2.08;0.90;;;11.00;86.40;;;;;;5035206;28;20025;-77
2022/12/28 01:55:07;;;;;;;2.15;1.00;;;11.00;86.40;;;;;;5050840;28;20063;-76
2022/12/28 01:57:41;;;;;;;2.95;1.13;;;11.00;86.50;;;;;;5035436;28;20025;-77
2022/12/28 02:00:10;;;;;;;2.50;1.10;;;11.10;86.50;;;;;;5034286;28;20025;-77
2022/12/28 02:02:36;;;;;;;2.83;1.10;;;11.00;86.50;;;;;;5035070;28;20028;-78
2022/12/28 02:05:03;;;;;;;1.83;0.90;;;11.00;86.40;;;;;;5050613;28;20025;-77
2022/12/28 02:07:41;;;;;;;2.42;1.17;;;11.00;86.50;;;;;;5035246;28;20044;-77
2022/12/28 02:10:08;;;;;;;2.08;1.08;;;11.00;86.40;;;;;;5035060;28;20080;-77
2022/12/28 02:12:34;;;;;;;1.92;0.90;;;11.00;86.40;;;;;;5034829;28;20100;-77
2022/12/28 02:15:00;;;;;;;1.98;1.00;;;11.00;86.50;;;;;;5035074;28;20398;-77
2022/12/28 02:17:26;;;;;;;3.47;1.42;;;11.00;86.50;;;;;;5035437;28;20116;-77
2022/12/28 02:19:51;;;;;;;6.28;1.58;;;11.00;86.50;;;;;;5050469;28;20068;-77
2022/12/28 02:22:29;;;;;;;2.53;0.95;;;11.00;86.50;;;;;;5049994;28;20037;-78
2022/12/28 02:25:06;;;;;;;1.83;0.90;;;11.00;86.40;;;;;;5034967;28;20021;-77
2022/12/28 02:28:09;;;;;;;2.30;0.95;;;11.00;86.40;;;;;;5050104;28;20028;-77
2022/12/28 02:30:43;;;;;;;3.63;1.00;;;11.00;86.50;;;;;;5050035;28;20025;-77
2022/12/28 02:33:21;;;;;;;2.13;1.10;;;11.00;86.60;;;;;;5050187;28;20402;-77
2022/12/28 02:35:55;;;;;;;2.58;1.02;;;11.00;86.50;;;;;;5034638;28;20449;-77
2022/12/28 02:38:32;;;;;;;3.30;1.00;;;11.00;86.50;;;;;;5050087;28;20036;-77
2022/12/28 02:41:05;;;;;;;3.92;0.98;;;11.10;86.60;;;;;;5049761;28;20033;-78
2022/12/28 02:43:32;;;;;;;2.08;1.00;;;11.00;86.50;;;;;;5049886;28;20075;-77
2022/12/28 02:51:55;;;;;;;2.65;1.02;;;11.00;86.40;;;;;;5034591;28;20028;-77
2022/12/28 02:57:54;;;;;;;1.67;0.80;;;11.00;86.50;;;;;;5034359;28;20033;-78
2022/12/28 03:00:22;;;;;;;1.42;0.80;;;11.00;86.50;;;;;;5034382;28;20133;-76
2022/12/28 03:03:12;;;;;;;2.78;1.10;;;11.00;86.50;;;;;;5033819;28;20025;-77
2022/12/28 03:09:03;;;;;;;2.10;0.90;;;11.00;86.60;;;;;;5034066;28;20033;-78
2022/12/28 03:11:49;;;;;;;2.05;0.82;;;11.00;86.50;;;;;;5033904;28;20052;-77
2022/12/28 03:14:23;;;;;;;1.90;1.02;;;11.00;86.40;;;;;;5032817;28;20030;-78
2022/12/28 03:31:08;;;;;;;2.38;1.08;;;11.00;86.40;;;;;;5033800;28;20080;-78
2022/12/28 03:33:38;;;;;;;1.98;1.08;;;11.00;86.50;;;;;;5032253;28;20025;-77
2022/12/28 03:36:35;;;;;;;1.85;0.88;;;11.00;86.50;;;;;;5033613;28;20087;-78
2022/12/28 03:39:03;;;;;;;3.15;1.02;;;11.00;86.50;;;;;;5044154;28;20033;-77
2022/12/28 03:41:44;;;;;;;2.88;0.90;;;11.00;86.50;;;;;;5031870;28;20487;-79
2022/12/28 03:44:20;;;;;;;1.73;0.93;;;11.00;86.60;;;;;;5032215;28;20033;-77
2022/12/28 03:46:56;;;;;;;3.20;1.25;;;11.00;86.10;;;;;;5048640;28;20400;-77
2022/12/28 03:49:26;;;;;;;2.97;1.00;;;11.00;86.20;;;;;;5048958;28;20434;-78
2022/12/28 03:51:52;;;;;;;1.80;0.90;;;11.00;86.50;;;;;;5031795;28;20033;-77
2022/12/28 03:54:18;;;;;;;2.00;0.90;;;11.00;86.50;;;;;;5033209;28;20029;-77
2022/12/28 03:56:49;;;;;;;2.25;0.82;;;11.00;87.10;;;;;;5031320;28;20030;-77
2022/12/28 03:59:16;;;;;;;2.15;0.90;;;11.00;86.50;;;;;;5033275;28;20116;-78
2022/12/28 04:01:41;;;;;;;2.35;0.80;;;11.00;86.40;;;;;;5033130;28;20029;-76
2022/12/28 04:04:08;;;;;;;1.60;0.77;;;11.00;86.50;;;;;;5032980;28;20586;-79
2022/12/28 04:06:34;;;;;;;2.03;0.80;;;11.00;86.50;;;;;;5032879;28;20033;-77
2022/12/28 04:08:59;;;;;;;1.83;0.80;;;11.00;86.30;;;;;;5032855;28;20096;-79
2022/12/28 04:11:25;;;;;;;2.63;1.00;;;11.00;86.50;;;;;;5032617;28;20059;-77
2022/12/28 04:13:50;;;;;;;1.35;0.98;;;11.00;86.40;;;;;;5048468;28;20029;-77
2022/12/28 04:16:16;;;;;;;1.73;0.93;;;11.00;86.00;;;;;;5032751;28;20025;-77
2022/12/28 04:18:42;;;;;;;1.10;0.82;;;11.00;86.30;;;;;;5031826;28;20051;-77
2022/12/28 04:21:12;;;;;;;2.58;1.20;;;11.00;86.60;;;;;;5032428;28;20025;-77
2022/12/28 04:23:38;;;;;;;2.58;0.80;;;11.00;86.50;;;;;;5047983;28;20139;-77
2022/12/28 04:26:06;;;;;;;2.83;1.00;;;11.00;86.40;;;;;;5032611;28;20044;-77
2022/12/28 04:28:33;;;;;;;1.88;1.00;;;11.00;86.50;;;;;;5031408;28;20036;-77
2022/12/28 04:31:00;;;;;;;1.80;0.98;;;11.00;86.60;;;;;;5032411;28;20044;-77
2022/12/28 04:33:26;;;;;;;2.60;1.00;;;11.00;86.50;;;;;;5032669;28;20415;-77
2022/12/28 04:35:52;;;;;;;2.85;0.90;;;11.00;86.60;;;;;;5031287;28;20025;-77
2022/12/28 04:38:19;;;;;;;1.17;0.70;;;11.00;86.50;;;;;;5047793;28;20029;-77
2022/12/28 04:40:45;;;;;;;1.23;0.70;;;11.00;86.60;;;;;;5047539;28;20140;-77
2022/12/28 04:43:11;;;;;;;1.73;1.00;;;11.00;86.70;;;;;;5031057;28;20495;-76
2022/12/28 04:45:36;;;;;;;2.25;0.80;;;11.00;86.50;;;;;;5047826;28;20017;-78
2022/12/28 04:48:02;;;;;;;2.30;1.13;;;11.00;86.70;;;;;;5047862;28;20025;-78
2022/12/28 04:50:28;;;;;;;1.67;0.80;;;11.00;86.50;;;;;;5032292;28;20584;-78
2022/12/28 04:52:53;;;;;;;2.03;0.93;;;11.00;86.50;;;;;;5047566;28;20029;-76
2022/12/28 04:55:19;;;;;;;1.80;1.00;;;11.00;86.50;;;;;;5029867;28;20021;-79
2022/12/28 04:57:45;;;;;;;2.63;1.10;;;11.00;86.50;;;;;;5027808;28;20442;-77
2022/12/28 05:00:13;;;;;;;3.17;1.00;;;11.00;86.50;;;;;;5042983;28;20030;-78
2022/12/28 05:02:39;;;;;;;1.45;0.80;;;11.00;86.60;;;;;;5027372;28;20032;-78
2022/12/28 05:05:05;;;;;;;1.58;0.90;;;11.00;86.60;;;;;;5046612;28;20021;-78
2022/12/28 05:07:31;;;;;;;1.77;0.93;;;11.00;86.60;;;;;;5048099;28;20395;-79
2022/12/28 05:09:57;;;;;;;1.85;0.90;;;11.00;86.40;;;;;;5052254;28;20021;-76
2022/12/28 05:12:22;;;;;;;1.92;1.00;;;11.00;86.40;;;;;;5048406;28;20410;-77
2022/12/28 05:14:48;;;;;;;1.90;0.90;;;11.00;86.50;;;;;;5051065;28;20123;-77
2022/12/28 05:17:13;;;;;;;1.63;0.93;;;11.00;86.60;;;;;;5050629;28;20025;-79
2022/12/28 05:19:39;;;;;;;1.55;1.00;;;11.00;86.70;;;;;;5051132;28;20033;-77
2022/12/28 05:22:10;;;;;;;1.90;0.80;;;10.90;86.40;;;;;;5050081;28;20702;-78
2022/12/28 05:24:39;;;;;;;2.58;0.90;;;11.00;86.60;;;;;;5030764;28;20033;-77
2022/12/28 05:27:04;;;;;;;2.45;1.23;;;11.00;86.60;;;;;;5030692;28;20033;-78
2022/12/28 05:29:30;;;;;;;2.03;1.02;;;11.00;86.70;;;;;;5038038;28;20025;-76
2022/12/28 05:31:55;;;;;;;2.40;1.08;;;11.00;86.70;;;;;;5035769;28;20072;-77
2022/12/28 05:34:21;;;;;;;1.30;0.80;;;11.00;86.60;;;;;;5031419;28;20037;-76
2022/12/28 05:36:46;;;;;;;1.42;0.90;;;11.00;86.70;;;;;;5030654;28;20032;-76
2022/12/28 05:39:12;;;;;;;2.35;1.02;;;11.00;86.70;;;;;;5030249;28;20387;-78
2022/12/28 05:41:37;;;;;;;1.95;1.00;;;10.90;86.70;;;;;;5031293;28;20079;-76
2022/12/28 05:44:03;;;;;;;1.73;0.73;;;11.00;86.60;;;;;;5030652;28;20034;-80
2022/12/28 05:46:31;;;;;;;2.40;0.90;;;11.00;86.60;;;;;;5030515;28;20159;-78
2022/12/28 05:48:58;;;;;;;1.83;0.82;;;11.00;86.70;;;;;;5030627;28;20095;-76
2022/12/28 05:51:27;;;;;;;2.13;0.80;;;11.00;86.70;;;;;;5030019;28;20105;-76
2022/12/28 05:53:53;;;;;;;1.95;0.95;;;11.00;86.70;;;;;;5050060;28;20091;-76
2022/12/28 05:56:21;;;;;;;1.45;0.90;;;11.00;86.60;;;;;;5050094;28;20036;-79
2022/12/28 05:58:55;;;;;;;1.98;0.90;;;11.00;86.70;;;;;;5050229;28;20032;-77
2022/12/28 06:01:23;;;;;;;2.85;0.98;;;11.00;86.70;;;;;;5050896;28;20506;-81
2022/12/28 06:03:53;;;;;;;2.55;0.90;;;10.90;86.80;;;;;;5050300;28;20074;-76
2022/12/28 06:06:19;;;;;;;1.90;0.93;;;11.00;86.80;;;;;;5049723;28;20025;-77
2022/12/28 06:08:46;;;;;;;2.92;1.02;;;11.00;86.80;;;;;;5049576;28;20499;-77
2022/12/28 06:11:14;;;;;;;1.25;0.80;;;11.00;86.70;;;;;;5049475;28;20029;-77
2022/12/28 06:13:40;;;;;;;1.92;0.93;;;11.00;86.80;;;;;;5049574;28;20036;-77
2022/12/28 06:16:23;;;;;;;1.52;0.85;;;11.00;86.80;;;;;;5050974;28;20029;-80
2022/12/28 06:18:51;;;;;;;1.73;1.00;;;11.00;86.80;;;;;;5048933;28;20134;-76
2022/12/28 06:21:28;;;;;;;1.77;0.90;;;11.00;86.70;;;;;;5051413;28;20036;-83
2022/12/28 06:23:59;;;;;;;1.42;0.90;;;11.00;86.70;;;;;;5051285;28;20032;-78
2022/12/28 06:26:27;;;;;;;1.65;0.93;;;11.00;86.80;;;;;;5049575;28;20044;-78
2022/12/28 06:28:52;;;;;;;2.13;0.90;;;11.00;86.80;;;;;;5049144;28;20033;-77
2022/12/28 06:31:21;;;;;;;2.90;1.05;;;11.00;86.70;;;;;;5049025;28;20033;-81
2022/12/28 06:33:47;;;;;;;2.78;1.00;;;10.90;86.60;;;;;;5049719;28;20021;-77
2022/12/28 06:36:18;;;;;;;2.85;1.10;;;10.90;86.60;;;;;;5051207;28;20020;-77
2022/12/28 06:38:44;;;;;;;1.27;0.90;;;11.00;86.60;;;;;;5053222;28;20077;-77
2022/12/28 06:41:12;;;;;;;2.35;1.00;;;11.00;86.70;;;;;;5053563;28;20029;-76
2022/12/28 06:43:38;;;;;;;1.33;0.85;;;10.90;86.70;;;;;;5053649;28;20055;-77
2022/12/28 06:46:05;;;;;;;2.15;1.05;;;11.00;86.80;;;;;;5054060;28;20017;-77
2022/12/28 06:48:32;;;;;;;1.88;1.02;;;11.00;86.80;;;;;;5053323;28;20021;-77
2022/12/28 06:51:05;;;;;;;2.08;0.90;;;11.00;86.90;;;;;;5052196;28;20029;-77
2022/12/28 06:53:33;;;;;;;1.67;0.80;;;11.00;86.80;;;;;;5052312;28;20061;-77
2022/12/28 06:56:01;;;;;;;2.30;1.00;;;11.00;86.90;;;;;;5053665;28;20148;-76
2022/12/28 06:58:28;;;;;;;1.63;0.88;;;11.00;86.80;;;;;;5052317;28;20033;-76
2022/12/28 07:00:54;;;;;;;1.98;0.90;;;11.00;86.90;;;;;;5051895;28;20094;-75
2022/12/28 07:03:21;;;;;;;1.65;0.80;;;11.00;86.90;;;;;;5053467;28;20017;-76
2022/12/28 07:05:47;;;;;;;0.75;0.70;;;10.90;86.90;;;;;;5053419;28;20360;-74
2022/12/28 07:08:13;;;;;;;1.65;0.80;;;11.00;87.00;;;;;;5053264;28;20076;-76
2022/12/28 07:10:38;;;;;;;2.40;1.02;;;11.00;86.80;;;;;;5051844;28;20033;-76
2022/12/28 07:13:04;;;;;;;1.73;0.95;;;11.00;86.90;;;;;;5053063;28;20104;-75
2022/12/28 07:15:30;;;;;;;2.10;0.85;;;11.00;87.00;;;;;;5053263;28;20021;-77
2022/12/28 07:17:57;;;;;;;2.42;1.00;;;10.90;87.00;;;;;;5053115;28;20532;-75
2022/12/28 07:20:23;;;;;;;1.30;0.70;;;10.90;86.90;;;;;;5051852;28;20368;-75
2022/12/28 07:22:49;;;;;;;1.33;0.80;;;10.90;86.90;;;;;;5052704;28;20053;-76
2022/12/28 07:25:14;;;;;;;1.30;0.80;;;11.00;86.90;;;;;;5051860;28;20127;-76
2022/12/28 07:27:40;;;;;;;1.83;0.93;;;10.90;86.80;;;;;;5051808;28;20017;-75
2022/12/28 07:30:06;;;;;;;1.60;0.90;;;11.00;87.00;;;;;;5051609;28;20036;-76
2022/12/28 07:32:36;;;;;;;1.13;0.77;;;10.90;87.00;;;;;;5051896;28;20021;-76
2022/12/28 07:35:01;;;;;;;1.08;0.80;;;10.90;87.00;;;;;;5051439;28;20060;-76
2022/12/28 07:37:27;;;;;;;1.92;1.00;;;10.90;87.00;;;;;;5051676;28;20110;-76
2022/12/28 07:39:52;;;;;;;1.73;1.08;;;11.00;87.10;;;;;;5052682;28;20021;-76
2022/12/28 07:42:18;;;;;;;1.38;0.75;;;11.00;86.90;;;;;;5052205;28;20037;-77
2022/12/28 07:44:44;;;;;;;1.70;1.00;;;10.90;86.80;;;;;;5052721;28;20048;-76
2022/12/28 07:47:10;;;;;;;2.40;0.95;;;11.00;87.60;;;;;;5052257;28;20067;-76
2022/12/28 07:49:36;;;;;;;3.13;1.00;;;11.00;87.10;;;;;;5051274;28;20013;-76
2022/12/28 07:52:01;;;;;;;2.45;0.90;;;11.00;87.10;;;;;;5052218;28;20033;-76
2022/12/28 07:54:27;;;;;;;1.10;0.80;;;11.00;87.00;;;;;;5051306;28;20013;-76
2022/12/28 07:56:52;;;;;;;1.25;0.80;;;10.90;87.00;;;;;;5051146;28;20047;-76
2022/12/28 07:59:18;;;;;;;2.83;1.05;;;11.00;87.10;;;;;;5051049;28;20024;-76
2022/12/28 08:01:43;;;;;;;2.47;0.95;;;10.90;87.00;;;;;;5052012;28;20033;-76
2022/12/28 08:04:12;;;;;;;2.10;1.00;;;10.90;87.00;;;;;;5052177;28;20056;-76
2022/12/28 08:06:40;;;;;;;2.72;1.25;;;10.90;86.90;;;;;;5052313;28;20029;-76
2022/12/28 08:09:06;;;;;;;1.67;1.00;;;11.00;86.90;;;;;;5052029;28;20060;-76
2022/12/28 08:11:34;;;;;;;2.60;1.15;;;10.90;86.90;;;;;;5050666;28;20081;-76
2022/12/28 08:14:01;;;;;;;2.72;1.10;;;11.00;87.00;;;;;;5052203;28;20413;-77
2022/12/28 08:16:29;;;;;;;3.45;1.25;;;11.00;87.20;;;;;;5052161;28;20036;-76
2022/12/28 08:18:55;;;;;;;2.88;1.20;;;11.00;87.10;;;;;;5050778;28;20027;-77
2022/12/28 08:21:27;;;;;;;2.13;1.00;;;11.00;87.10;;;;;;5051763;28;20028;-77
2022/12/28 08:23:53;;;;;;;1.95;1.00;;;11.00;87.10;;;;;;5050635;28;20021;-76
2022/12/28 08:26:21;;;;;;;1.88;1.00;;;11.00;87.00;;;;;;5050748;28;20025;-76
2022/12/28 08:28:50;;;;;;;2.70;1.17;;;11.00;86.90;;;;;;5050712;28;20143;-76
2022/12/28 08:31:19;;;;;;;2.38;0.90;;;11.00;87.00;;;;;;5050279;28;20027;-76
2022/12/28 08:33:45;;;;;;;2.05;1.00;;;10.90;86.90;;;;;;5051751;28;20029;-76
2022/12/28 08:36:10;;;;;;;2.80;1.13;;;11.00;87.10;;;;;;5050387;28;20021;-76
2022/12/28 08:38:37;;;;;;;2.42;1.00;;;10.90;87.10;;;;;;5051905;28;20047;-76
2022/12/28 08:41:05;;;;;;;2.10;1.02;;;10.90;87.00;;;;;;5051405;28;20025;-76
2022/12/28 08:43:31;;;;;;;2.13;1.05;;;11.00;87.00;;;;;;5051284;28;20025;-74
2022/12/28 08:45:58;;;;;;;2.45;0.90;;;10.90;86.90;;;;;;5050362;28;20032;-76
2022/12/28 08:48:25;;;;;;;2.30;1.10;;;10.90;87.10;;;;;;5051482;28;20029;-76
2022/12/28 08:50:50;;;;;;;1.63;0.95;;;11.00;87.10;;;;;;5050126;28;20190;-75
2022/12/28 08:53:16;;;;;;;1.65;1.00;;;10.90;86.90;;;;;;5051505;28;20509;-76
2022/12/28 08:55:41;;;;;;;2.03;0.93;;;11.00;87.00;;;;;;5050446;28;20036;-76
2022/12/28 08:58:07;;;;;;;1.92;1.00;;;10.90;87.10;;;;;;5051404;28;20376;-75
2022/12/28 09:00:32;;;;;;;1.20;0.80;;;11.00;87.00;;;;;;5050245;28;20102;-76
2022/12/28 09:02:58;;;;;;;2.03;1.10;;;11.00;87.10;;;;;;5051196;28;20155;-76
2022/12/28 09:05:24;;;;;;;1.85;0.90;;;10.90;87.00;;;;;;5051415;28;20017;-76
2022/12/28 09:07:50;;;;;;;2.17;0.98;;;11.00;87.10;;;;;;5051479;28;20537;-75
2022/12/28 09:10:16;;;;;;;2.90;1.08;;;11.00;87.10;;;;;;5050207;28;20082;-76
2022/12/28 09:12:41;;;;;;;1.40;0.90;;;10.90;87.10;;;;;;5051038;28;20053;-76
2022/12/28 09:15:08;;;;;;;1.63;0.90;;;11.00;87.20;;;;;;5050121;28;20033;-76
2022/12/28 09:17:33;;;;;;;2.35;1.00;;;10.90;87.10;;;;;;5050099;28;20029;-76
2022/12/28 09:19:59;;;;;;;1.45;0.90;;;10.90;87.20;;;;;;5049931;28;20031;-77
2022/12/28 09:22:24;;;;;;;1.73;1.00;;;10.90;87.10;;;;;;5051064;28;20037;-76
2022/12/28 09:24:49;;;;;;;2.35;0.95;;;10.90;87.10;;;;;;5050081;28;20028;-76
2022/12/28 09:27:15;;;;;;;1.90;1.00;;;10.90;87.10;;;;;;5051380;28;20444;-76
2022/12/28 09:29:40;;;;;;;2.33;1.00;;;10.90;87.10;;;;;;5051219;28;20047;-76
2022/12/28 09:32:06;;;;;;;1.60;0.95;;;10.90;86.90;;;;;;5050833;28;20075;-77
2022/12/28 09:34:31;;;;;;;1.50;0.85;;;10.90;87.00;;;;;;5051263;28;20101;-76
2022/12/28 09:36:57;;;;;;;1.70;0.93;;;10.90;87.10;;;;;;5049911;28;20450;-76
2022/12/28 09:39:23;;;;;;;1.98;0.80;;;10.90;87.00;;;;;;5050002;28;20108;-76
2022/12/28 09:41:51;;;;;;;1.63;1.00;;;10.90;87.10;;;;;;5050677;28;20074;-76
2022/12/28 09:44:37;;;;;;;5.63;3.05;;;11.00;87.20;;;;;;5051174;28;20033;-76
2022/12/28 09:47:21;;;;;;;2.13;1.20;;;11.00;87.10;;;;;;5050529;28;20024;-75
2022/12/28 09:50:03;;;;;;;2.05;1.10;;;11.00;87.10;;;;;;5051062;28;20059;-76
2022/12/28 09:52:33;;;;;;;2.63;1.20;;;11.00;87.00;;;;;;5050895;28;20067;-77
2022/12/28 09:55:17;;;;;;;1.23;0.80;;;11.00;87.00;;;;;;5051580;28;20029;-76
2022/12/28 09:57:46;;;;;;;2.50;0.90;;;10.90;87.00;;;;;;5053376;28;20025;-76
2022/12/28 10:00:18;;;;;;;2.47;1.00;;;11.00;87.10;;;;;;5053364;28;20426;-76
2022/12/28 10:02:49;;;;;;;1.63;1.00;;;11.00;87.00;;;;;;5054322;28;20028;-76
2022/12/28 10:05:15;;;;;;;2.17;1.00;;;11.00;87.20;;;;;;5053468;28;20483;-76
2022/12/28 10:07:40;;;;;;;2.28;1.00;;;11.00;87.00;;;;;;5053311;28;20075;-77
2022/12/28 10:10:06;;;;;;;2.25;0.90;;;11.00;87.00;;;;;;5054546;28;20467;-77
2022/12/28 10:12:31;;;;;;;1.63;0.80;;;11.00;87.00;;;;;;5052816;28;20029;-76
2022/12/28 10:14:58;;;;;;;2.28;0.90;;;11.00;87.00;;;;;;5054165;28;20032;-76
2022/12/28 10:17:29;;;;;;;1.42;0.80;;;11.00;87.00;;;;;;5054437;28;20025;-76
2022/12/28 10:19:57;;;;;;;1.60;0.88;;;10.90;87.00;;;;;;5054311;28;20108;-75
2022/12/28 10:22:25;;;;;;;2.05;1.00;;;11.00;87.00;;;;;;5052617;28;20445;-76
2022/12/28 10:24:51;;;;;;;1.45;0.80;;;11.00;87.10;;;;;;5054227;28;20017;-76
2022/12/28 10:27:28;;;;;;;1.60;0.90;;;11.00;87.10;;;;;;5053041;28;20033;-76
2022/12/28 10:29:54;;;;;;;2.58;0.80;;;10.90;87.00;;;;;;5054169;28;20025;-75
2022/12/28 10:32:19;;;;;;;1.90;1.00;;;11.00;87.10;;;;;;5052657;28;20371;-76
2022/12/28 10:35:02;;;;;;;0.88;0.75;;;11.00;87.10;;;;;;5053992;28;20437;-76
2022/12/28 10:37:33;;;;;;;1.38;0.80;;;11.00;87.00;;;;;;5054126;28;20025;-76
2022/12/28 10:40:04;;;;;;;1.48;0.82;;;11.00;87.00;;;;;;5053976;28;20131;-76
2022/12/28 10:42:41;;;;;;;0.98;0.80;;;11.00;87.10;;;;;;5052163;28;20037;-76
2022/12/28 10:45:17;;;;;;;1.67;1.00;;;11.00;87.10;;;;;;5053689;28;20108;-76
2022/12/28 10:47:48;;;;;;;2.38;0.95;;;11.00;87.10;;;;;;5053449;28;20021;-76
2022/12/28 10:50:38;;;;;;;1.33;0.90;;;11.00;87.00;;;;;;5053704;28;20024;-76
2022/12/28 10:53:04;;;;;;;1.73;0.90;;;11.00;87.30;;;;;;5052343;28;20505;-76
2022/12/28 10:55:32;;;;;;;1.48;0.88;;;11.00;87.10;;;;;;5053604;28;20033;-76
2022/12/28 10:58:20;;;;;;;1.80;1.00;;;11.00;87.30;;;;;;5053503;28;20138;-76
2022/12/28 11:00:59;;;;;;;1.77;0.90;;;11.00;87.10;;;;;;5053359;28;20438;-76
2022/12/28 11:03:28;;;;;;;1.65;0.80;;;11.00;87.60;;;;;;5052139;28;20112;-76
2022/12/28 11:06:16;;;;;;;1.27;0.82;;;11.00;87.00;;;;;;5053288;28;20077;-76
2022/12/28 11:08:45;;;;;;;1.40;0.82;;;11.00;87.10;;;;;;5053396;28;20021;-77
2022/12/28 11:11:17;;;;;;;1.75;0.93;;;11.00;87.00;;;;;;5053288;28;20044;-76
2022/12/28 11:13:47;;;;;;;1.30;0.80;;;11.00;87.10;;;;;;5053428;28;20025;-76
2022/12/28 11:16:13;;;;;;;6.28;1.10;;;11.00;87.10;;;;;;5052022;28;20500;-76
2022/12/28 11:18:40;;;;;;;1.45;0.90;;;11.00;87.10;;;;;;5053340;28;20086;-75
2022/12/28 11:21:10;;;;;;;1.27;0.70;;;11.00;87.20;;;;;;5052784;28;20495;-75
2022/12/28 11:23:37;;;;;;;1.60;0.90;;;11.00;87.20;;;;;;5053146;28;20377;-76
2022/12/28 11:26:02;;;;;;;1.25;0.80;;;11.00;87.20;;;;;;5052927;28;20021;-75
2022/12/28 11:28:28;;;;;;;1.25;0.80;;;11.00;87.20;;;;;;5051839;28;20035;-76
2022/12/28 11:30:55;;;;;;;1.10;0.80;;;11.00;87.60;;;;;;5052645;28;20043;-76
2022/12/28 11:33:31;;;;;;;1.63;0.90;;;11.00;87.10;;;;;;5051597;28;20024;-76
2022/12/28 11:35:57;;;;;;;2.30;0.80;;;11.00;87.10;;;;;;5052787;28;20036;-75
2022/12/28 11:38:43;;;;;;;1.13;0.80;;;11.00;87.20;;;;;;5052743;28;20025;-76
2022/12/28 11:41:11;;;;;;;1.42;0.80;;;11.00;87.20;;;;;;5051366;28;20441;-76
2022/12/28 11:43:48;;;;;;;1.17;0.80;;;11.00;87.10;;;;;;5052855;28;20029;-76
2022/12/28 11:46:20;;;;;;;1.08;0.90;;;11.00;87.20;;;;;;5051481;28;20020;-76
2022/12/28 11:48:55;;;;;;;1.00;0.90;;;11.00;87.20;;;;;;5052637;28;20095;-75
2022/12/28 11:51:22;;;;;;;1.17;0.88;;;11.00;87.20;;;;;;5051271;28;20033;-76
2022/12/28 11:54:01;;;;;;;0.90;0.80;;;11.00;87.20;;;;;;5052463;28;20035;-76
2022/12/28 11:56:44;;;;;;;1.02;0.80;;;11.00;87.20;;;;;;5051403;28;20025;-76
2022/12/28 11:59:31;;;;;;;2.10;0.90;;;11.00;87.10;;;;;;5051167;28;20053;-76
2022/12/28 12:01:59;;;;;;;1.48;0.98;;;11.00;87.30;;;;;;5050669;28;20029;-76
2022/12/28 12:04:40;;;;;;;1.63;1.00;;;11.00;87.20;;;;;;5052533;28;20045;-75
2022/12/28 12:07:13;;;;;;;3.80;1.02;;;11.00;87.20;;;;;;5052316;28;20021;-76
2022/12/28 12:09:43;;;;;;;1.23;0.80;;;11.00;87.10;;;;;;5052295;28;20029;-76
2022/12/28 12:12:14;;;;;;;2.58;0.98;;;11.00;87.10;;;;;;5051753;28;20025;-76
2022/12/28 12:14:59;;;;;;;1.58;0.80;;;11.00;87.30;;;;;;5052217;28;20024;-76
2022/12/28 12:17:28;;;;;;;1.25;0.80;;;11.00;87.10;;;;;;5050472;28;20384;-76
2022/12/28 12:19:57;;;;;;;1.00;0.70;;;11.00;87.20;;;;;;5052050;28;20025;-76
2022/12/28 12:22:27;;;;;;;1.67;0.90;;;11.00;87.20;;;;;;5051641;28;20099;-76
2022/12/28 12:25:13;;;;;;;1.83;0.90;;;11.00;87.20;;;;;;5051826;28;20025;-76
2022/12/28 12:27:43;;;;;;;1.75;0.90;;;11.00;87.20;;;;;;5052070;28;20025;-76
2022/12/28 12:30:16;;;;;;;1.77;0.98;;;11.00;87.20;;;;;;5051943;28;20403;-76
2022/12/28 12:33:02;;;;;;;2.10;1.40;;;11.00;87.20;;;;;;5051362;28;20044;-76
2022/12/28 12:35:33;;;;;;;1.50;0.93;;;11.00;87.20;;;;;;5051958;28;20105;-76
2022/12/28 12:38:23;;;;;;;1.60;1.00;;;11.00;87.20;;;;;;5051851;28;20116;-77
2022/12/28 12:40:58;;;;;;;3.30;1.30;;;11.00;87.20;;;;;;5051396;28;20029;-76
2022/12/28 12:43:30;;;;;;;1.45;0.90;;;11.00;87.20;;;;;;5051670;28;20051;-76
2022/12/28 12:46:12;;;;;;;0.85;0.80;;;11.00;87.20;;;;;;5051638;28;20036;-76
2022/12/28 12:49:17;;;;;;;1.27;0.82;;;11.00;87.30;;;;;;5051707;28;20025;-76
2022/12/28 12:52:02;;;;;;;1.67;0.90;;;11.00;87.30;;;;;;5051543;28;20021;-76
2022/12/28 12:55:05;;;;;;;1.52;0.98;;;11.00;87.20;;;;;;5052717;28;20538;-76
2022/12/28 12:58:01;;;;;;;1.10;0.82;;;11.00;87.30;;;;;;5051549;28;20104;-77
2022/12/28 13:00:56;;;;;;;1.48;0.80;;;11.00;87.30;;;;;;5050403;28;20487;-76
2022/12/28 13:03:43;;;;;;;1.30;1.00;;;11.00;87.20;;;;;;5051599;28;20032;-76
2022/12/28 13:06:15;;;;;;;2.05;1.02;;;11.00;87.30;;;;;;5050192;28;20029;-77
2022/12/28 13:08:57;;;;;;;1.20;0.90;;;11.00;87.20;;;;;;5050378;28;20083;-76
2022/12/28 13:11:23;;;;;;;1.25;0.90;;;11.00;87.30;;;;;;5051123;28;20484;-77
2022/12/28 13:13:51;;;;;;;1.20;1.00;;;11.00;87.30;;;;;;5051552;28;20070;-77
2022/12/28 13:16:22;;;;;;;1.30;1.00;;;11.00;87.40;;;;;;5051348;28;20036;-78
2022/12/28 13:18:52;;;;;;;3.35;1.23;;;11.00;87.40;;;;;;5050239;28;20025;-76
2022/12/28 13:21:19;;;;;;;1.95;1.00;;;11.00;87.40;;;;;;5049853;28;20137;-75
2022/12/28 13:23:45;;;;;;;1.88;0.90;;;11.00;87.40;;;;;;5051198;28;20056;-78
2022/12/28 13:26:14;;;;;;;1.55;1.00;;;11.00;87.40;;;;;;5051155;28;20027;-78
2022/12/28 13:28:56;;;;;;;2.33;1.00;;;11.00;87.30;;;;;;5049940;28;20083;-76